createdAt,value
2022-11-26T00:02:44.222Z,83.14
2022-11-26T00:05:57.607Z,81.37
2022-11-26T00:09:06.406Z,74.55
2022-11-26T00:12:20.274Z,70.89
2022-11-26T00:15:30.580Z,65.86
2022-11-26T00:18:36.508Z,65.71
2022-11-26T00:21:46.400Z,66.75
2022-11-26T00:24:53.476Z,69.78
2022-11-26T00:28:02.616Z,65.15
2022-11-26T00:31:17.640Z,63.19
2022-11-26T00:34:24.419Z,64.36
2022-11-26T00:37:46.202Z,65.92
2022-11-26T00:40:53.105Z,69.58
2022-11-26T00:43:59.058Z,66.97
2022-11-26T00:47:06.111Z,62.48
2022-11-26T00:50:18.706Z,59.83
2022-11-26T00:53:30.318Z,59.63
2022-11-26T00:56:38.247Z,62.00
2022-11-26T00:59:45.212Z,60.12
2022-11-26T01:02:52.185Z,57.79
2022-11-26T01:06:02.654Z,58.01
2022-11-26T01:09:22.238Z,58.85
2022-11-26T01:12:29.009Z,60.01
2022-11-26T01:15:34.877Z,63.00
2022-11-26T01:18:41.796Z,64.86
2022-11-26T01:21:47.852Z,64.12
2022-11-26T01:24:57.376Z,61.42
2022-11-26T01:28:03.487Z,63.37
2022-11-26T01:31:18.582Z,63.89
2022-11-26T01:34:24.529Z,63.74
2022-11-26T01:37:31.374Z,64.82
2022-11-26T01:41:05.471Z,66.90
2022-11-26T01:44:22.156Z,67.55
2022-11-26T01:47:31.731Z,66.06
2022-11-26T01:51:00.672Z,64.40
2022-11-26T01:54:07.031Z,60.73
2022-11-26T01:57:23.938Z,59.89
2022-11-26T02:00:29.972Z,58.34
2022-11-26T02:03:47.049Z,59.25
2022-11-26T02:06:55.239Z,57.50
2022-11-26T02:10:02.135Z,57.02
2022-11-26T02:13:10.971Z,56.19
2022-11-26T02:16:37.200Z,55.66
2022-11-26T02:20:28.203Z,55.74
2022-11-26T02:24:12.745Z,55.55
2022-11-26T02:28:11.870Z,54.78
2022-11-26T02:31:32.720Z,53.50
2022-11-26T02:34:51.659Z,54.07
2022-11-26T02:38:05.918Z,53.95
2022-11-26T02:41:12.799Z,52.84
2022-11-26T02:44:24.194Z,55.10
2022-11-26T02:47:37.668Z,55.54
2022-11-26T02:50:51.614Z,56.98
2022-11-26T02:54:00.060Z,57.17
2022-11-26T02:57:14.947Z,57.46
2022-11-26T03:00:23.504Z,58.50
2022-11-26T03:03:41.443Z,57.87
2022-11-26T03:06:50.965Z,57.36
2022-11-26T03:10:00.953Z,56.51
2022-11-26T03:13:07.751Z,53.68
2022-11-26T03:16:13.694Z,52.69
2022-11-26T03:19:23.108Z,52.92
2022-11-26T03:22:29.677Z,52.44
2022-11-26T03:25:37.014Z,51.38
2022-11-26T03:28:43.068Z,52.34
2022-11-26T03:31:49.947Z,54.50
2022-11-26T03:34:58.574Z,54.65
2022-11-26T03:38:05.347Z,53.95
2022-11-26T03:41:11.277Z,53.94
2022-11-26T03:44:18.459Z,53.47
2022-11-26T03:47:24.794Z,54.74
2022-11-26T03:50:34.155Z,53.83
2022-11-26T03:53:40.035Z,54.27
2022-11-26T03:56:46.783Z,65.82
2022-11-26T03:59:52.820Z,64.63
2022-11-26T04:02:59.683Z,54.44
2022-11-26T04:06:09.735Z,52.64
2022-11-26T04:09:16.691Z,52.71
2022-11-26T04:12:22.736Z,52.52
2022-11-26T04:15:29.483Z,54.82
2022-11-26T04:18:36.025Z,52.20
2022-11-26T04:21:45.635Z,50.08
2022-11-26T04:24:51.764Z,50.26
2022-11-26T04:27:59.146Z,50.23
2022-11-26T04:31:05.141Z,47.36
2022-11-26T04:34:11.916Z,47.61
2022-11-26T04:37:20.525Z,48.76
2022-11-26T04:40:27.250Z,52.08
2022-11-26T04:43:33.372Z,50.00
2022-11-26T04:46:40.194Z,51.49
2022-11-26T04:49:46.181Z,49.28
2022-11-26T04:52:55.782Z,51.95
2022-11-26T04:56:01.781Z,52.12
2022-11-26T04:59:08.502Z,49.76
2022-11-26T05:02:14.867Z,50.58
2022-11-26T05:05:21.979Z,51.34
2022-11-26T05:08:30.537Z,51.45
2022-11-26T05:11:37.291Z,51.23
2022-11-26T05:14:43.257Z,51.46
2022-11-26T05:17:49.969Z,53.11
2022-11-26T05:20:55.912Z,53.36
2022-11-26T05:24:05.469Z,53.75
2022-11-26T05:27:12.435Z,52.61
2022-11-26T05:30:19.781Z,52.35
2022-11-26T05:33:25.685Z,52.50
2022-11-26T05:36:32.371Z,54.79
2022-11-26T05:39:41.079Z,55.85
2022-11-26T05:42:48.214Z,55.96
2022-11-26T05:45:54.193Z,57.10
2022-11-26T05:49:01.142Z,57.15
2022-11-26T05:52:07.318Z,59.59
2022-11-26T05:55:16.731Z,64.25
2022-11-26T05:58:22.944Z,57.91
2022-11-26T06:01:29.751Z,54.20
2022-11-26T06:04:36.726Z,54.49
2022-11-26T06:07:45.092Z,53.03
2022-11-26T06:10:53.916Z,54.08
2022-11-26T06:14:00.639Z,60.01
2022-11-26T06:17:06.615Z,89.66
2022-11-26T06:20:15.609Z,75.55
2022-11-26T06:23:21.604Z,63.59
2022-11-26T06:26:31.173Z,55.88
2022-11-26T06:29:37.405Z,50.21
2022-11-26T06:32:44.217Z,48.23
2022-11-26T06:35:50.129Z,52.97
2022-11-26T06:38:56.778Z,54.28
2022-11-26T06:42:05.319Z,48.62
2022-11-26T06:45:14.211Z,52.77
2022-11-26T06:48:20.131Z,53.65
2022-11-26T06:51:27.974Z,45.35
2022-11-26T06:54:34.124Z,39.77
2022-11-26T06:57:43.450Z,38.68
2022-11-26T07:00:49.397Z,39.08
2022-11-26T07:03:56.855Z,36.44
2022-11-26T07:07:02.825Z,37.11
2022-11-26T07:10:11.395Z,35.04
2022-11-26T07:13:20.014Z,33.69
2022-11-26T07:16:28.146Z,33.00
2022-11-26T07:19:34.217Z,32.60
2022-11-26T07:22:41.247Z,32.59
2022-11-26T07:25:47.347Z,32.64
2022-11-26T07:28:56.982Z,32.69
2022-11-26T07:32:03.015Z,32.46
2022-11-26T07:35:11.313Z,32.71
2022-11-26T07:38:17.418Z,32.32
2022-11-26T07:41:25.672Z,29.98
2022-11-26T07:44:34.551Z,30.10
2022-11-26T07:47:41.523Z,29.82
2022-11-26T07:50:48.148Z,30.43
2022-11-26T07:53:56.573Z,30.37
2022-11-26T07:57:02.521Z,30.61
2022-11-26T08:00:14.096Z,31.63
2022-11-26T08:03:20.041Z,33.94
2022-11-26T08:06:30.484Z,35.68
2022-11-26T08:09:36.667Z,43.60
2022-11-26T08:12:43.795Z,49.69
2022-11-26T08:15:54.223Z,47.96
2022-11-26T08:19:04.077Z,52.44
2022-11-26T08:22:10.095Z,57.72
2022-11-26T08:25:16.925Z,59.21
2022-11-26T08:28:23.197Z,62.66
2022-11-26T08:31:35.165Z,56.97
2022-11-26T08:34:42.300Z,54.44
2022-11-26T08:37:49.100Z,55.86
2022-11-26T08:40:55.280Z,59.20
2022-11-26T08:44:06.517Z,62.00
2022-11-26T08:47:16.787Z,71.33
2022-11-26T08:50:23.635Z,74.89
2022-11-26T08:53:32.427Z,67.16
2022-11-26T08:56:40.236Z,64.77
2022-11-26T08:59:46.111Z,64.61
2022-11-26T09:02:55.511Z,66.82
2022-11-26T09:06:04.577Z,66.53
2022-11-26T09:09:15.857Z,67.34
2022-11-26T09:12:22.092Z,69.30
2022-11-26T09:15:29.078Z,69.62
2022-11-26T09:18:37.592Z,75.48
2022-11-26T09:21:44.442Z,69.15
2022-11-26T09:24:50.459Z,72.25
2022-11-26T09:27:57.257Z,63.53
2022-11-26T09:31:04.880Z,63.16
2022-11-26T09:34:15.435Z,55.81
2022-11-26T09:37:21.298Z,51.85
2022-11-26T09:40:50.649Z,49.05
2022-11-26T09:44:22.460Z,48.61
2022-11-26T09:47:38.866Z,51.30
2022-11-26T09:50:54.005Z,48.97
2022-11-26T09:54:04.701Z,52.54
2022-11-26T09:57:30.563Z,56.56
2022-11-26T10:00:44.174Z,60.75
2022-11-26T10:03:50.474Z,83.03
2022-11-26T10:07:17.517Z,79.14
2022-11-26T10:10:35.408Z,65.08
2022-11-26T10:13:57.399Z,73.13
2022-11-26T10:17:29.197Z,97.99
2022-11-26T10:21:18.210Z,107.52
2022-11-26T10:24:39.518Z,86.85
2022-11-26T10:27:47.206Z,86.08
2022-11-26T10:31:02.727Z,69.62
2022-11-26T10:34:20.260Z,59.94
2022-11-26T10:37:29.268Z,53.55
2022-11-26T10:40:39.421Z,58.31
2022-11-26T10:43:45.486Z,54.88
2022-11-26T10:46:52.243Z,63.45
2022-11-26T10:53:58.697Z,49.99
2022-11-26T10:57:21.981Z,44.57
2022-11-26T11:00:42.169Z,41.37
2022-11-26T11:04:10.772Z,39.86
2022-11-26T11:07:44.312Z,43.74
2022-11-26T11:10:59.620Z,39.52
2022-11-26T11:14:09.051Z,38.42
2022-11-26T11:17:36.464Z,36.22
2022-11-26T11:20:55.006Z,38.28
2022-11-26T11:24:12.363Z,37.98
2022-11-26T11:27:30.982Z,35.84
2022-11-26T11:30:43.624Z,35.40
2022-11-26T11:33:52.155Z,34.67
2022-11-26T11:37:11.728Z,33.71
2022-11-26T11:40:27.756Z,35.56
2022-11-26T11:43:40.040Z,38.54
2022-11-26T11:47:24.484Z,34.12
2022-11-26T11:50:39.323Z,34.67
2022-11-26T11:54:07.713Z,37.36
2022-11-26T11:57:38.355Z,37.43
2022-11-26T12:00:58.472Z,38.91
2022-11-26T12:04:46.341Z,39.13
2022-11-26T12:08:10.948Z,42.75
2022-11-26T12:11:41.163Z,50.00
2022-11-26T12:14:55.453Z,50.23
2022-11-26T12:18:16.419Z,50.97
2022-11-26T12:21:42.506Z,68.93
2022-11-26T12:24:58.035Z,70.88
2022-11-26T12:28:18.180Z,62.41
2022-11-26T12:31:35.864Z,63.34
2022-11-26T12:34:52.947Z,73.41
2022-11-26T12:38:10.874Z,68.73
2022-11-26T12:41:27.500Z,62.44
2022-11-26T12:44:43.091Z,56.60
2022-11-26T12:48:01.058Z,50.52
2022-11-26T12:51:27.467Z,57.74
2022-11-26T12:54:56.929Z,60.04
2022-11-26T12:58:17.091Z,63.75
2022-11-26T13:01:24.648Z,57.65
2022-11-26T13:04:39.435Z,53.48
2022-11-26T13:08:15.388Z,51.34
2022-11-26T13:11:43.851Z,47.87
2022-11-26T13:15:04.108Z,39.29
2022-11-26T13:18:32.606Z,39.12
2022-11-26T13:22:04.140Z,36.25
2022-11-26T13:25:47.592Z,36.56
2022-11-26T13:29:33.028Z,33.73
2022-11-26T13:33:32.400Z,31.67
2022-11-26T13:37:09.550Z,32.53
2022-11-26T13:40:57.375Z,37.69
2022-11-26T13:44:42.415Z,41.86
2022-11-26T13:47:58.154Z,41.79
2022-11-26T13:51:18.980Z,35.35
2022-11-26T13:54:33.871Z,34.10
2022-11-26T13:57:49.355Z,33.79
2022-11-26T14:00:58.080Z,34.54
2022-11-26T14:04:08.084Z,33.87
2022-11-26T14:07:24.134Z,32.37
2022-11-26T14:10:46.472Z,33.77
2022-11-26T14:14:37.663Z,37.09
2022-11-26T14:18:00.339Z,41.57
2022-11-26T14:21:16.821Z,38.65
2022-11-26T14:25:02.802Z,35.82
2022-11-26T14:28:13.406Z,34.71
2022-11-26T14:31:27.926Z,33.81
2022-11-26T14:34:44.401Z,37.64
2022-11-26T14:37:57.024Z,35.45
2022-11-26T14:41:05.622Z,35.62
2022-11-26T14:44:17.589Z,34.16
2022-11-26T14:47:25.771Z,34.21
2022-11-26T14:50:39.013Z,35.30
2022-11-26T14:53:51.757Z,35.06
2022-11-26T14:57:10.518Z,34.83
2022-11-26T15:00:27.997Z,34.37
2022-11-26T15:03:35.378Z,34.64
2022-11-26T15:06:46.336Z,36.25
2022-11-26T15:10:05.592Z,62.95
2022-11-26T15:13:26.237Z,57.78
2022-11-26T15:16:41.680Z,63.60
2022-11-26T15:19:52.023Z,70.89
2022-11-26T15:23:03.149Z,70.86
2022-11-26T15:26:09.949Z,62.79
2022-11-26T15:29:41.417Z,58.13
2022-11-26T15:32:47.520Z,57.50
2022-11-26T15:35:57.520Z,57.61
2022-11-26T15:39:08.217Z,65.64
2022-11-26T15:42:32.595Z,99.67
2022-11-26T15:45:44.568Z,95.70
2022-11-26T15:48:57.222Z,87.34
2022-11-26T15:52:09.275Z,77.77
2022-11-26T15:55:33.257Z,83.02
2022-11-26T15:58:44.521Z,93.41
2022-11-26T16:01:54.071Z,78.58
2022-11-26T16:05:02.342Z,61.67
2022-11-26T16:08:30.495Z,54.93
2022-11-26T16:11:39.401Z,52.41
2022-11-26T16:14:46.592Z,49.86
2022-11-26T16:17:56.745Z,47.38
2022-11-26T16:21:11.783Z,49.69
2022-11-26T16:24:33.751Z,36.96
2022-11-26T16:27:40.807Z,36.89
2022-11-26T16:30:48.542Z,45.02
2022-11-26T16:33:58.917Z,46.31
2022-11-26T16:37:19.205Z,47.78
2022-11-26T16:40:27.471Z,41.32
2022-11-26T16:43:33.826Z,37.24
2022-11-26T16:46:42.480Z,34.52
2022-11-26T16:49:51.891Z,33.66
2022-11-26T16:52:59.244Z,33.74
2022-11-26T16:56:05.369Z,33.19
2022-11-26T16:59:28.821Z,37.25
2022-11-26T17:02:38.167Z,36.16
2022-11-26T17:05:47.800Z,35.46
2022-11-26T17:08:55.020Z,38.53
2022-11-26T17:12:01.900Z,50.60
2022-11-26T17:15:09.105Z,53.62
2022-11-26T17:18:22.416Z,50.22
2022-11-26T17:21:31.158Z,47.19
2022-11-26T17:24:38.354Z,52.04
2022-11-26T17:27:45.642Z,53.55
2022-11-26T17:30:53.732Z,48.77
2022-11-26T17:33:59.911Z,52.63
2022-11-26T17:37:16.879Z,56.35
2022-11-26T17:40:27.293Z,47.80
2022-11-26T17:43:34.527Z,46.34
2022-11-26T17:47:08.995Z,45.15
2022-11-26T17:50:09.973Z,46.34
2022-11-26T17:53:18.515Z,56.44
2022-11-26T17:56:27.587Z,53.34
2022-11-26T17:59:34.108Z,53.79
2022-11-26T18:02:41.156Z,50.12
2022-11-26T18:05:47.301Z,47.66
2022-11-26T18:08:56.733Z,47.47
2022-11-26T18:12:04.456Z,51.23
2022-11-26T18:15:12.446Z,63.14
2022-11-26T18:18:18.454Z,64.90
2022-11-26T18:21:25.207Z,62.65
2022-11-26T18:24:34.111Z,66.52
2022-11-26T18:27:40.924Z,64.45
2022-11-26T18:30:47.037Z,62.25
2022-11-26T18:33:54.470Z,64.77
2022-11-26T18:37:00.481Z,59.76
2022-11-26T18:40:14.144Z,64.12
2022-11-26T18:43:20.257Z,71.90
2022-11-26T18:46:27.307Z,66.47
2022-11-26T18:49:33.525Z,74.64
2022-11-26T18:52:43.225Z,83.64
2022-11-26T18:55:52.061Z,77.78
2022-11-26T18:58:59.615Z,81.13
2022-11-26T19:02:06.065Z,84.55
2022-11-26T19:05:13.053Z,89.70
2022-11-26T19:08:19.847Z,81.11
2022-11-26T19:11:30.050Z,75.44
2022-11-26T19:14:35.948Z,79.95
2022-11-26T19:17:42.764Z,72.65
2022-11-26T19:20:55.643Z,78.58
2022-11-26T19:24:06.517Z,66.24
2022-11-26T19:27:16.571Z,64.24
2022-11-26T19:30:23.800Z,63.86
2022-11-26T19:33:32.672Z,62.23
2022-11-26T19:36:41.050Z,62.60
2022-11-26T19:39:47.887Z,63.83
2022-11-26T19:42:57.378Z,63.12
2022-11-26T19:46:08.903Z,62.10
2022-11-26T19:49:17.596Z,63.18
2022-11-26T19:52:23.584Z,76.95
2022-11-26T19:55:30.396Z,91.47
2022-11-26T19:58:40.353Z,90.18
2022-11-26T20:01:47.284Z,97.74
2022-11-26T20:04:53.235Z,88.87
2022-11-26T20:08:00.161Z,87.65
2022-11-26T20:11:07.683Z,92.11
2022-11-26T20:14:18.319Z,100.05
2022-11-26T20:17:24.651Z,103.27
2022-11-26T20:20:31.374Z,96.78
2022-11-26T20:23:37.296Z,109.96
2022-11-26T20:26:48.819Z,91.95
2022-11-26T20:29:57.288Z,82.56
2022-11-26T20:33:04.039Z,87.98
2022-11-26T20:36:13.250Z,72.90
2022-11-26T20:39:22.501Z,63.51
2022-11-26T20:42:28.482Z,63.41
2022-11-26T20:45:38.856Z,66.44
2022-11-26T20:48:47.596Z,66.51
2022-11-26T20:51:54.350Z,127.58
2022-11-26T20:55:00.255Z,105.65
2022-11-26T20:58:07.031Z,99.46
2022-11-26T21:01:21.139Z,78.12
2022-11-26T21:04:27.905Z,84.40
2022-11-26T21:07:34.004Z,80.43
2022-11-26T21:10:42.880Z,74.03
2022-11-26T21:13:49.034Z,76.31
2022-11-26T21:16:58.426Z,71.80
2022-11-26T21:20:04.519Z,71.53
2022-11-26T21:23:13.191Z,77.23
2022-11-26T21:26:22.157Z,73.32
2022-11-26T21:29:28.996Z,66.97
2022-11-26T21:32:37.679Z,64.49
2022-11-26T21:35:44.598Z,67.45
2022-11-26T21:38:52.614Z,64.32
2022-11-26T21:41:59.323Z,69.59
2022-11-26T21:45:05.466Z,67.68
2022-11-26T21:48:14.900Z,68.71
2022-11-26T21:51:22.892Z,68.52
2022-11-26T21:54:30.683Z,70.71
2022-11-26T21:57:38.701Z,64.09
2022-11-26T22:00:47.046Z,98.77
2022-11-26T22:03:59.235Z,66.06
2022-11-26T22:07:06.795Z,51.81
2022-11-26T22:10:14.568Z,51.38
2022-11-26T22:13:21.337Z,55.47
2022-11-26T22:16:30.686Z,67.46
2022-11-26T22:19:40.135Z,51.17
2022-11-26T22:22:46.263Z,49.44
2022-11-26T22:25:53.452Z,51.18
2022-11-26T22:29:00.109Z,77.89
2022-11-26T22:32:07.433Z,54.25
2022-11-26T22:35:16.157Z,80.24
2022-11-26T22:38:22.871Z,51.55
2022-11-26T22:41:29.511Z,42.76
2022-11-26T22:44:36.967Z,43.97
2022-11-26T22:47:42.873Z,44.26
2022-11-26T22:50:57.171Z,44.52
2022-11-26T22:54:05.227Z,44.64
2022-11-26T22:57:12.008Z,45.56
2022-11-26T23:00:51.818Z,44.88
2022-11-26T23:04:00.895Z,48.60
2022-11-26T23:07:09.852Z,47.76
2022-11-26T23:10:16.698Z,48.60
2022-11-26T23:13:22.766Z,45.43
2022-11-26T23:16:31.094Z,44.52
2022-11-26T23:19:37.233Z,50.09
2022-11-26T23:22:46.595Z,50.83
2022-11-26T23:25:52.546Z,174.29
2022-11-26T23:29:02.006Z,289.15
2022-11-26T23:32:08.137Z,47.91
2022-11-26T23:35:15.264Z,48.32
2022-11-26T23:38:24.048Z,48.12
2022-11-26T23:41:31.676Z,48.41
2022-11-26T23:44:37.576Z,48.65
2022-11-26T23:47:44.204Z,48.58
2022-11-26T23:50:50.062Z,46.75
2022-11-26T23:54:00.145Z,44.27
2022-11-26T23:57:09.249Z,45.58
